sensor_id;sensor_type;location;lat;lon;timestamp;P1;durP1;ratioP1;P2;durP2;ratioP2
29876;SDS011;16750;49.002;9.204;2022-09-13T00:01:58;3.85;;;2.85;;
29876;SDS011;16750;49.002;9.204;2022-09-13T00:04:23;3.92;;;2.97;;
29876;SDS011;16750;49.002;9.204;2022-09-13T00:06:48;4.18;;;3.05;;
29876;SDS011;16750;49.002;9.204;2022-09-13T00:09:14;3.83;;;3.03;;
29876;SDS011;16750;49.002;9.204;2022-09-13T00:11:39;3.92;;;2.75;;
29876;SDS011;16750;49.002;9.204;2022-09-13T00:14:04;4.25;;;2.92;;
29876;SDS011;16750;49.002;9.204;2022-09-13T00:16:30;3.55;;;2.83;;
29876;SDS011;16750;49.002;9.204;2022-09-13T00:18:55;5.13;;;3.10;;
29876;SDS011;16750;49.002;9.204;2022-09-13T00:21:22;3.90;;;3.10;;
29876;SDS011;16750;49.002;9.204;2022-09-13T00:23:49;4.28;;;3.03;;
29876;SDS011;16750;49.002;9.204;2022-09-13T00:26:17;4.53;;;2.95;;
29876;SDS011;16750;49.002;9.204;2022-09-13T00:28:49;4.85;;;3.30;;
29876;SDS011;16750;49.002;9.204;2022-09-13T00:31:16;5.85;;;3.60;;
29876;SDS011;16750;49.002;9.204;2022-09-13T00:33:42;4.15;;;3.10;;
29876;SDS011;16750;49.002;9.204;2022-09-13T00:36:08;3.17;;;2.28;;
29876;SDS011;16750;49.002;9.204;2022-09-13T00:38:35;4.00;;;2.95;;
29876;SDS011;16750;49.002;9.204;2022-09-13T00:41:03;3.92;;;2.90;;
29876;SDS011;16750;49.002;9.204;2022-09-13T00:43:49;5.00;;;3.15;;
29876;SDS011;16750;49.002;9.204;2022-09-13T00:46:41;4.45;;;3.28;;
29876;SDS011;16750;49.002;9.204;2022-09-13T00:49:23;3.33;;;2.58;;
29876;SDS011;16750;49.002;9.204;2022-09-13T00:52:05;5.25;;;3.10;;
29876;SDS011;16750;49.002;9.204;2022-09-13T00:54:35;4.05;;;3.30;;
29876;SDS011;16750;49.002;9.204;2022-09-13T00:57:06;3.25;;;2.58;;
29876;SDS011;16750;49.002;9.204;2022-09-13T00:59:39;4.38;;;3.40;;
29876;SDS011;16750;49.002;9.204;2022-09-13T01:02:09;4.43;;;3.50;;
29876;SDS011;16750;49.002;9.204;2022-09-13T01:04:36;4.65;;;3.20;;
29876;SDS011;16750;49.002;9.204;2022-09-13T01:07:03;4.20;;;3.25;;
29876;SDS011;16750;49.002;9.204;2022-09-13T01:09:33;3.45;;;2.92;;
29876;SDS011;16750;49.002;9.204;2022-09-13T01:12:24;4.43;;;3.58;;
29876;SDS011;16750;49.002;9.204;2022-09-13T01:14:50;4.63;;;3.08;;
29876;SDS011;16750;49.002;9.204;2022-09-13T01:17:16;4.28;;;3.13;;
29876;SDS011;16750;49.002;9.204;2022-09-13T01:19:42;4.32;;;3.65;;
29876;SDS011;16750;49.002;9.204;2022-09-13T01:25:02;5.55;;;3.20;;
29876;SDS011;16750;49.002;9.204;2022-09-13T01:31:06;6.68;;;3.50;;
29876;SDS011;16750;49.002;9.204;2022-09-13T01:39:26;3.38;;;2.42;;
29876;SDS011;16750;49.002;9.204;2022-09-13T01:42:24;5.28;;;3.30;;
29876;SDS011;16750;49.002;9.204;2022-09-13T01:47:45;4.40;;;3.13;;
29876;SDS011;16750;49.002;9.204;2022-09-13T01:53:08;3.78;;;3.03;;
29876;SDS011;16750;49.002;9.204;2022-09-13T01:55:46;5.28;;;3.63;;
29876;SDS011;16750;49.002;9.204;2022-09-13T01:58:29;3.92;;;3.03;;
29876;SDS011;16750;49.002;9.204;2022-09-13T02:01:06;6.50;;;3.60;;
29876;SDS011;16750;49.002;9.204;2022-09-13T02:03:50;5.05;;;3.53;;
29876;SDS011;16750;49.002;9.204;2022-09-13T02:06:22;4.95;;;3.15;;
29876;SDS011;16750;49.002;9.204;2022-09-13T02:08:56;4.47;;;3.40;;
29876;SDS011;16750;49.002;9.204;2022-09-13T02:11:25;4.63;;;3.70;;
29876;SDS011;16750;49.002;9.204;2022-09-13T02:13:54;4.38;;;3.90;;
29876;SDS011;16750;49.002;9.204;2022-09-13T02:16:33;4.18;;;3.65;;
29876;SDS011;16750;49.002;9.204;2022-09-13T02:19:13;5.78;;;3.88;;
29876;SDS011;16750;49.002;9.204;2022-09-13T02:21:43;6.53;;;3.70;;
29876;SDS011;16750;49.002;9.204;2022-09-13T02:24:21;4.32;;;3.72;;
29876;SDS011;16750;49.002;9.204;2022-09-13T02:26:51;4.38;;;3.50;;
29876;SDS011;16750;49.002;9.204;2022-09-13T02:29:19;4.60;;;3.50;;
29876;SDS011;16750;49.002;9.204;2022-09-13T02:32:11;5.43;;;3.72;;
29876;SDS011;16750;49.002;9.204;2022-09-13T02:34:54;5.10;;;3.70;;
29876;SDS011;16750;49.002;9.204;2022-09-13T02:37:26;4.40;;;3.38;;
29876;SDS011;16750;49.002;9.204;2022-09-13T02:39:56;6.35;;;4.15;;
29876;SDS011;16750;49.002;9.204;2022-09-13T02:42:29;7.28;;;3.60;;
29876;SDS011;16750;49.002;9.204;2022-09-13T02:45:01;5.30;;;4.05;;
29876;SDS011;16750;49.002;9.204;2022-09-13T03:01:28;4.93;;;3.42;;
29876;SDS011;16750;49.002;9.204;2022-09-13T03:03:53;6.60;;;3.85;;
29876;SDS011;16750;49.002;9.204;2022-09-13T03:06:25;5.05;;;3.38;;
29876;SDS011;16750;49.002;9.204;2022-09-13T03:08:53;5.93;;;3.67;;
29876;SDS011;16750;49.002;9.204;2022-09-13T03:30:48;7.72;;;3.85;;
29876;SDS011;16750;49.002;9.204;2022-09-13T03:33:25;5.07;;;3.92;;
29876;SDS011;16750;49.002;9.204;2022-09-13T03:38:30;4.97;;;3.95;;
29876;SDS011;16750;49.002;9.204;2022-09-13T03:41:06;7.57;;;4.05;;
29876;SDS011;16750;49.002;9.204;2022-09-13T03:43:37;5.23;;;3.83;;
29876;SDS011;16750;49.002;9.204;2022-09-13T03:46:10;6.45;;;4.22;;
29876;SDS011;16750;49.002;9.204;2022-09-13T03:48:44;5.28;;;4.25;;
29876;SDS011;16750;49.002;9.204;2022-09-13T03:51:09;5.68;;;3.90;;
29876;SDS011;16750;49.002;9.204;2022-09-13T03:53:36;4.82;;;4.07;;
29876;SDS011;16750;49.002;9.204;2022-09-13T03:56:11;5.82;;;4.13;;
29876;SDS011;16750;49.002;9.204;2022-09-13T03:58:38;4.82;;;3.97;;
29876;SDS011;16750;49.002;9.204;2022-09-13T04:01:04;5.22;;;4.20;;
29876;SDS011;16750;49.002;9.204;2022-09-13T04:03:29;7.10;;;4.00;;
29876;SDS011;16750;49.002;9.204;2022-09-13T04:05:55;6.55;;;4.38;;
29876;SDS011;16750;49.002;9.204;2022-09-13T04:08:20;7.38;;;4.30;;
29876;SDS011;16750;49.002;9.204;2022-09-13T04:10:48;6.70;;;4.32;;
29876;SDS011;16750;49.002;9.204;2022-09-13T04:13:14;7.05;;;4.97;;
29876;SDS011;16750;49.002;9.204;2022-09-13T04:15:41;5.82;;;4.45;;
29876;SDS011;16750;49.002;9.204;2022-09-13T04:18:06;6.05;;;4.45;;
29876;SDS011;16750;49.002;9.204;2022-09-13T04:20:33;7.32;;;4.35;;
29876;SDS011;16750;49.002;9.204;2022-09-13T04:22:59;5.88;;;4.68;;
29876;SDS011;16750;49.002;9.204;2022-09-13T04:25:25;9.18;;;4.80;;
29876;SDS011;16750;49.002;9.204;2022-09-13T04:27:55;5.85;;;4.70;;
29876;SDS011;16750;49.002;9.204;2022-09-13T04:30:23;6.38;;;4.25;;
29876;SDS011;16750;49.002;9.204;2022-09-13T04:32:49;6.70;;;4.28;;
29876;SDS011;16750;49.002;9.204;2022-09-13T04:35:15;7.05;;;4.80;;
29876;SDS011;16750;49.002;9.204;2022-09-13T04:37:42;7.32;;;4.95;;
29876;SDS011;16750;49.002;9.204;2022-09-13T04:40:08;6.45;;;4.53;;
29876;SDS011;16750;49.002;9.204;2022-09-13T04:42:33;5.65;;;4.50;;
29876;SDS011;16750;49.002;9.204;2022-09-13T04:44:59;8.13;;;4.68;;
29876;SDS011;16750;49.002;9.204;2022-09-13T04:47:24;6.72;;;4.53;;
29876;SDS011;16750;49.002;9.204;2022-09-13T04:49:50;6.78;;;4.70;;
29876;SDS011;16750;49.002;9.204;2022-09-13T04:52:15;6.57;;;4.80;;
29876;SDS011;16750;49.002;9.204;2022-09-13T04:54:40;7.80;;;4.97;;
29876;SDS011;16750;49.002;9.204;2022-09-13T04:57:06;6.63;;;4.65;;
29876;SDS011;16750;49.002;9.204;2022-09-13T04:59:31;6.85;;;4.57;;
29876;SDS011;16750;49.002;9.204;2022-09-13T05:01:57;6.70;;;4.68;;
29876;SDS011;16750;49.002;9.204;2022-09-13T05:04:22;5.13;;;4.28;;
29876;SDS011;16750;49.002;9.204;2022-09-13T05:06:48;7.15;;;4.68;;
29876;SDS011;16750;49.002;9.204;2022-09-13T05:09:13;7.03;;;4.20;;
29876;SDS011;16750;49.002;9.204;2022-09-13T05:11:40;5.68;;;4.25;;
29876;SDS011;16750;49.002;9.204;2022-09-13T05:14:08;4.45;;;3.58;;
29876;SDS011;16750;49.002;9.204;2022-09-13T05:16:34;6.47;;;4.45;;
29876;SDS011;16750;49.002;9.204;2022-09-13T05:19:00;5.90;;;4.15;;
29876;SDS011;16750;49.002;9.204;2022-09-13T05:21:26;5.40;;;4.30;;
29876;SDS011;16750;49.002;9.204;2022-09-13T05:23:53;6.88;;;4.25;;
29876;SDS011;16750;49.002;9.204;2022-09-13T05:26:20;7.80;;;4.32;;
29876;SDS011;16750;49.002;9.204;2022-09-13T05:28:47;5.63;;;3.90;;
29876;SDS011;16750;49.002;9.204;2022-09-13T05:31:19;8.45;;;4.05;;
29876;SDS011;16750;49.002;9.204;2022-09-13T05:33:51;4.90;;;3.72;;
29876;SDS011;16750;49.002;9.204;2022-09-13T05:36:19;7.57;;;4.25;;
29876;SDS011;16750;49.002;9.204;2022-09-13T05:38:44;7.78;;;4.05;;
29876;SDS011;16750;49.002;9.204;2022-09-13T05:41:10;6.90;;;4.22;;
29876;SDS011;16750;49.002;9.204;2022-09-13T05:43:35;7.50;;;4.70;;
29876;SDS011;16750;49.002;9.204;2022-09-13T05:48:35;8.73;;;4.95;;
29876;SDS011;16750;49.002;9.204;2022-09-13T05:51:14;10.63;;;4.70;;
29876;SDS011;16750;49.002;9.204;2022-09-13T05:53:42;4.95;;;3.75;;
29876;SDS011;16750;49.002;9.204;2022-09-13T05:56:10;8.50;;;4.18;;
29876;SDS011;16750;49.002;9.204;2022-09-13T05:58:38;9.57;;;4.45;;
29876;SDS011;16750;49.002;9.204;2022-09-13T06:01:05;10.05;;;4.65;;
29876;SDS011;16750;49.002;9.204;2022-09-13T06:03:30;8.05;;;4.00;;
29876;SDS011;16750;49.002;9.204;2022-09-13T06:05:56;9.38;;;4.55;;
29876;SDS011;16750;49.002;9.204;2022-09-13T06:08:25;7.45;;;4.22;;
29876;SDS011;16750;49.002;9.204;2022-09-13T06:10:53;11.95;;;4.50;;
29876;SDS011;16750;49.002;9.204;2022-09-13T06:13:26;10.10;;;4.15;;
29876;SDS011;16750;49.002;9.204;2022-09-13T06:15:52;10.68;;;4.65;;
29876;SDS011;16750;49.002;9.204;2022-09-13T06:18:19;10.82;;;4.60;;
29876;SDS011;16750;49.002;9.204;2022-09-13T06:20:44;11.63;;;4.40;;
29876;SDS011;16750;49.002;9.204;2022-09-13T06:23:10;9.68;;;4.38;;
29876;SDS011;16750;49.002;9.204;2022-09-13T06:25:36;11.38;;;4.50;;
29876;SDS011;16750;49.002;9.204;2022-09-13T06:28:02;11.73;;;4.75;;
29876;SDS011;16750;49.002;9.204;2022-09-13T06:30:27;14.07;;;4.35;;
29876;SDS011;16750;49.002;9.204;2022-09-13T06:32:54;14.50;;;4.30;;
29876;SDS011;16750;49.002;9.204;2022-09-13T06:35:21;15.60;;;4.75;;
29876;SDS011;16750;49.002;9.204;2022-09-13T06:37:46;16.13;;;5.10;;
29876;SDS011;16750;49.002;9.204;2022-09-13T06:40:11;11.40;;;4.30;;
29876;SDS011;16750;49.002;9.204;2022-09-13T06:42:37;11.00;;;4.57;;
29876;SDS011;16750;49.002;9.204;2022-09-13T06:45:03;12.60;;;4.35;;
29876;SDS011;16750;49.002;9.204;2022-09-13T06:47:29;11.63;;;4.28;;
29876;SDS011;16750;49.002;9.204;2022-09-13T06:49:55;11.40;;;4.38;;
29876;SDS011;16750;49.002;9.204;2022-09-13T06:52:20;10.45;;;4.40;;
29876;SDS011;16750;49.002;9.204;2022-09-13T06:54:45;11.20;;;4.40;;
29876;SDS011;16750;49.002;9.204;2022-09-13T06:57:11;8.38;;;4.13;;
29876;SDS011;16750;49.002;9.204;2022-09-13T06:59:36;9.95;;;3.85;;
29876;SDS011;16750;49.002;9.204;2022-09-13T07:02:02;9.30;;;4.10;;
29876;SDS011;16750;49.002;9.204;2022-09-13T07:04:27;6.40;;;3.75;;
29876;SDS011;16750;49.002;9.204;2022-09-13T07:06:55;8.57;;;4.20;;
29876;SDS011;16750;49.002;9.204;2022-09-13T07:09:22;10.90;;;4.57;;
29876;SDS011;16750;49.002;9.204;2022-09-13T07:11:49;10.30;;;4.18;;
29876;SDS011;16750;49.002;9.204;2022-09-13T07:14:17;9.82;;;4.07;;
29876;SDS011;16750;49.002;9.204;2022-09-13T07:16:44;11.77;;;4.35;;
29876;SDS011;16750;49.002;9.204;2022-09-13T07:19:15;10.38;;;4.20;;
29876;SDS011;16750;49.002;9.204;2022-09-13T07:21:42;5.85;;;3.60;;
29876;SDS011;16750;49.002;9.204;2022-09-13T07:24:08;6.97;;;3.65;;
29876;SDS011;16750;49.002;9.204;2022-09-13T07:26:34;6.65;;;3.42;;
29876;SDS011;16750;49.002;9.204;2022-09-13T07:29:01;9.98;;;3.85;;
29876;SDS011;16750;49.002;9.204;2022-09-13T07:31:31;6.97;;;3.65;;
29876;SDS011;16750;49.002;9.204;2022-09-13T07:34:02;8.95;;;3.55;;
29876;SDS011;16750;49.002;9.204;2022-09-13T07:36:31;8.48;;;3.50;;
29876;SDS011;16750;49.002;9.204;2022-09-13T07:38:58;8.70;;;3.45;;
29876;SDS011;16750;49.002;9.204;2022-09-13T07:41:25;13.40;;;3.85;;
29876;SDS011;16750;49.002;9.204;2022-09-13T07:43:51;11.45;;;3.20;;
29876;SDS011;16750;49.002;9.204;2022-09-13T07:46:18;8.68;;;3.53;;
29876;SDS011;16750;49.002;9.204;2022-09-13T07:48:45;9.65;;;3.55;;
29876;SDS011;16750;49.002;9.204;2022-09-13T07:51:13;12.02;;;3.33;;
29876;SDS011;16750;49.002;9.204;2022-09-13T07:53:44;8.70;;;3.13;;
29876;SDS011;16750;49.002;9.204;2022-09-13T07:56:11;7.68;;;2.90;;
29876;SDS011;16750;49.002;9.204;2022-09-13T07:58:39;8.85;;;2.85;;
29876;SDS011;16750;49.002;9.204;2022-09-13T08:01:06;8.27;;;2.60;;
29876;SDS011;16750;49.002;9.204;2022-09-13T08:03:35;6.95;;;2.50;;
29876;SDS011;16750;49.002;9.204;2022-09-13T08:06:01;8.02;;;2.38;;
29876;SDS011;16750;49.002;9.204;2022-09-13T08:08:28;6.97;;;2.55;;
29876;SDS011;16750;49.002;9.204;2022-09-13T08:10:54;7.10;;;2.60;;
29876;SDS011;16750;49.002;9.204;2022-09-13T08:13:19;7.15;;;2.67;;
29876;SDS011;16750;49.002;9.204;2022-09-13T08:15:45;5.93;;;2.63;;
29876;SDS011;16750;49.002;9.204;2022-09-13T08:18:10;9.38;;;2.67;;
29876;SDS011;16750;49.002;9.204;2022-09-13T08:20:36;9.23;;;2.50;;
29876;SDS011;16750;49.002;9.204;2022-09-13T08:23:03;5.03;;;2.05;;
29876;SDS011;16750;49.002;9.204;2022-09-13T08:25:33;7.60;;;2.85;;
29876;SDS011;16750;49.002;9.204;2022-09-13T08:28:00;7.47;;;2.65;;
29876;SDS011;16750;49.002;9.204;2022-09-13T08:30:32;5.28;;;2.10;;
29876;SDS011;16750;49.002;9.204;2022-09-13T08:33:00;6.55;;;2.20;;
29876;SDS011;16750;49.002;9.204;2022-09-13T08:35:26;5.43;;;2.10;;
29876;SDS011;16750;49.002;9.204;2022-09-13T08:37:52;4.40;;;2.10;;
29876;SDS011;16750;49.002;9.204;2022-09-13T08:40:18;3.83;;;1.92;;
29876;SDS011;16750;49.002;9.204;2022-09-13T08:42:50;5.82;;;2.08;;
29876;SDS011;16750;49.002;9.204;2022-09-13T08:45:26;5.30;;;2.00;;
29876;SDS011;16750;49.002;9.204;2022-09-13T08:47:53;6.32;;;1.98;;
29876;SDS011;16750;49.002;9.204;2022-09-13T08:50:25;3.03;;;2.03;;
29876;SDS011;16750;49.002;9.204;2022-09-13T08:58:26;5.47;;;2.05;;
29876;SDS011;16750;49.002;9.204;2022-09-13T09:01:17;4.13;;;1.90;;
29876;SDS011;16750;49.002;9.204;2022-09-13T09:04:04;5.22;;;1.77;;
29876;SDS011;16750;49.002;9.204;2022-09-13T09:10:45;2.45;;;1.50;;
29876;SDS011;16750;49.002;9.204;2022-09-13T09:13:20;3.95;;;1.40;;
29876;SDS011;16750;49.002;9.204;2022-09-13T09:15:51;4.55;;;1.60;;
29876;SDS011;16750;49.002;9.204;2022-09-13T09:18:33;5.32;;;1.83;;
29876;SDS011;16750;49.002;9.204;2022-09-13T09:21:02;3.17;;;1.65;;
29876;SDS011;16750;49.002;9.204;2022-09-13T09:26:19;4.10;;;1.73;;
29876;SDS011;16750;49.002;9.204;2022-09-13T09:29:12;2.92;;;1.25;;
29876;SDS011;16750;49.002;9.204;2022-09-13T09:35:00;6.53;;;1.50;;
29876;SDS011;16750;49.002;9.204;2022-09-13T09:37:28;2.28;;;1.20;;
29876;SDS011;16750;49.002;9.204;2022-09-13T09:39:58;2.40;;;1.20;;
29876;SDS011;16750;49.002;9.204;2022-09-13T09:42:27;3.08;;;1.40;;
29876;SDS011;16750;49.002;9.204;2022-09-13T09:45:03;3.13;;;1.50;;
29876;SDS011;16750;49.002;9.204;2022-09-13T09:47:33;3.50;;;1.27;;
29876;SDS011;16750;49.002;9.204;2022-09-13T09:50:10;4.05;;;1.15;;
29876;SDS011;16750;49.002;9.204;2022-09-13T09:52:41;3.72;;;1.20;;
29876;SDS011;16750;49.002;9.204;2022-09-13T09:55:23;3.33;;;1.10;;
29876;SDS011;16750;49.002;9.204;2022-09-13T09:57:54;3.90;;;1.10;;
29876;SDS011;16750;49.002;9.204;2022-09-13T10:00:28;3.28;;;1.10;;
29876;SDS011;16750;49.002;9.204;2022-09-13T10:03:06;4.75;;;1.20;;
29876;SDS011;16750;49.002;9.204;2022-09-13T10:05:41;5.28;;;1.17;;
29876;SDS011;16750;49.002;9.204;2022-09-13T10:08:07;2.95;;;1.17;;
29876;SDS011;16750;49.002;9.204;2022-09-13T10:10:51;2.95;;;0.95;;
29876;SDS011;16750;49.002;9.204;2022-09-13T10:13:19;7.03;;;1.30;;
29876;SDS011;16750;49.002;9.204;2022-09-13T10:18:30;6.00;;;1.20;;
29876;SDS011;16750;49.002;9.204;2022-09-13T10:21:08;3.25;;;1.20;;
29876;SDS011;16750;49.002;9.204;2022-09-13T10:23:48;5.70;;;1.05;;
29876;SDS011;16750;49.002;9.204;2022-09-13T10:26:15;8.65;;;1.13;;
29876;SDS011;16750;49.002;9.204;2022-09-13T10:31:16;6.10;;;1.25;;
29876;SDS011;16750;49.002;9.204;2022-09-13T10:34:27;3.67;;;1.10;;
29876;SDS011;16750;49.002;9.204;2022-09-13T10:39:31;3.38;;;1.20;;
29876;SDS011;16750;49.002;9.204;2022-09-13T10:42:04;4.43;;;1.15;;
29876;SDS011;16750;49.002;9.204;2022-09-13T10:47:20;3.65;;;1.23;;
29876;SDS011;16750;49.002;9.204;2022-09-13T10:49:51;3.17;;;0.95;;
29876;SDS011;16750;49.002;9.204;2022-09-13T10:52:32;5.05;;;1.10;;
29876;SDS011;16750;49.002;9.204;2022-09-13T10:55:58;3.20;;;1.30;;
29876;SDS011;16750;49.002;9.204;2022-09-13T11:00:38;4.00;;;1.13;;
29876;SDS011;16750;49.002;9.204;2022-09-13T11:06:02;4.53;;;1.13;;
29876;SDS011;16750;49.002;9.204;2022-09-13T11:08:41;4.32;;;1.27;;
29876;SDS011;16750;49.002;9.204;2022-09-13T11:11:15;4.97;;;1.50;;
29876;SDS011;16750;49.002;9.204;2022-09-13T11:24:13;2.97;;;1.10;;
29876;SDS011;16750;49.002;9.204;2022-09-13T11:26:56;3.00;;;1.15;;
29876;SDS011;16750;49.002;9.204;2022-09-13T11:32:31;3.97;;;1.23;;
29876;SDS011;16750;49.002;9.204;2022-09-13T11:38:04;3.40;;;1.20;;
29876;SDS011;16750;49.002;9.204;2022-09-13T11:49:08;2.22;;;1.08;;
29876;SDS011;16750;49.002;9.204;2022-09-13T11:51:45;2.03;;;1.00;;
29876;SDS011;16750;49.002;9.204;2022-09-13T11:57:27;1.90;;;1.10;;
29876;SDS011;16750;49.002;9.204;2022-09-13T11:59:58;3.47;;;0.98;;
29876;SDS011;16750;49.002;9.204;2022-09-13T12:05:14;3.40;;;0.90;;
29876;SDS011;16750;49.002;9.204;2022-09-13T12:07:49;3.45;;;1.10;;
29876;SDS011;16750;49.002;9.204;2022-09-13T12:10:21;4.50;;;1.00;;
29876;SDS011;16750;49.002;9.204;2022-09-13T12:12:50;4.00;;;1.13;;
29876;SDS011;16750;49.002;9.204;2022-09-13T12:15:24;2.47;;;1.10;;
29876;SDS011;16750;49.002;9.204;2022-09-13T12:17:57;1.80;;;1.00;;
29876;SDS011;16750;49.002;9.204;2022-09-13T12:20:33;2.25;;;0.82;;
29876;SDS011;16750;49.002;9.204;2022-09-13T12:23:03;2.92;;;1.00;;
29876;SDS011;16750;49.002;9.204;2022-09-13T12:25:40;4.72;;;1.20;;
29876;SDS011;16750;49.002;9.204;2022-09-13T12:28:15;1.85;;;0.82;;
29876;SDS011;16750;49.002;9.204;2022-09-13T12:30:54;3.42;;;0.55;;
29876;SDS011;16750;49.002;9.204;2022-09-13T12:33:23;2.50;;;1.02;;
29876;SDS011;16750;49.002;9.204;2022-09-13T12:49:44;5.15;;;0.70;;
29876;SDS011;16750;49.002;9.204;2022-09-13T13:00:26;4.65;;;0.90;;
29876;SDS011;16750;49.002;9.204;2022-09-13T13:03:05;2.22;;;0.50;;
29876;SDS011;16750;49.002;9.204;2022-09-13T13:13:41;4.97;;;0.60;;
29876;SDS011;16750;49.002;9.204;2022-09-13T13:18:58;3.38;;;0.70;;
29876;SDS011;16750;49.002;9.204;2022-09-13T13:26:52;4.60;;;0.70;;
29876;SDS011;16750;49.002;9.204;2022-09-13T13:29:23;4.47;;;0.70;;
29876;SDS011;16750;49.002;9.204;2022-09-13T13:34:26;2.55;;;0.63;;
29876;SDS011;16750;49.002;9.204;2022-09-13T13:36:59;3.38;;;0.70;;
29876;SDS011;16750;49.002;9.204;2022-09-13T13:50:11;1.20;;;0.60;;
29876;SDS011;16750;49.002;9.204;2022-09-13T13:52:49;9.15;;;1.75;;
29876;SDS011;16750;49.002;9.204;2022-09-13T14:00:47;2.08;;;0.70;;
29876;SDS011;16750;49.002;9.204;2022-09-13T14:08:54;2.35;;;0.50;;
29876;SDS011;16750;49.002;9.204;2022-09-13T14:11:31;6.53;;;0.70;;
29876;SDS011;16750;49.002;9.204;2022-09-13T14:20:18;1.40;;;0.60;;
29876;SDS011;16750;49.002;9.204;2022-09-13T14:22:45;2.40;;;0.60;;
29876;SDS011;16750;49.002;9.204;2022-09-13T14:27:42;1.88;;;0.50;;
29876;SDS011;16750;49.002;9.204;2022-09-13T14:32:49;1.75;;;0.60;;
29876;SDS011;16750;49.002;9.204;2022-09-13T14:37:50;1.33;;;0.55;;
29876;SDS011;16750;49.002;9.204;2022-09-13T14:42:43;4.88;;;0.85;;
29876;SDS011;16750;49.002;9.204;2022-09-13T14:45:14;1.90;;;0.50;;
29876;SDS011;16750;49.002;9.204;2022-09-13T14:50:15;1.52;;;0.40;;
29876;SDS011;16750;49.002;9.204;2022-09-13T14:52:53;3.10;;;0.50;;
29876;SDS011;16750;49.002;9.204;2022-09-13T14:55:26;1.73;;;0.50;;
29876;SDS011;16750;49.002;9.204;2022-09-13T14:57:59;2.30;;;0.35;;
29876;SDS011;16750;49.002;9.204;2022-09-13T15:00:29;2.95;;;0.45;;
29876;SDS011;16750;49.002;9.204;2022-09-13T15:02:58;2.40;;;0.50;;
29876;SDS011;16750;49.002;9.204;2022-09-13T15:05:28;1.88;;;0.40;;
29876;SDS011;16750;49.002;9.204;2022-09-13T15:07:56;7.20;;;0.65;;
29876;SDS011;16750;49.002;9.204;2022-09-13T15:10:26;2.67;;;0.45;;
29876;SDS011;16750;49.002;9.204;2022-09-13T15:17:57;1.90;;;0.40;;
29876;SDS011;16750;49.002;9.204;2022-09-13T15:20:23;4.43;;;0.47;;
29876;SDS011;16750;49.002;9.204;2022-09-13T15:23:17;2.55;;;0.47;;
29876;SDS011;16750;49.002;9.204;2022-09-13T15:25:54;1.77;;;0.60;;
29876;SDS011;16750;49.002;9.204;2022-09-13T15:28:21;4.07;;;0.50;;
29876;SDS011;16750;49.002;9.204;2022-09-13T15:31:06;5.38;;;0.57;;
29876;SDS011;16750;49.002;9.204;2022-09-13T15:33:33;2.25;;;0.35;;
29876;SDS011;16750;49.002;9.204;2022-09-13T15:41:55;1.42;;;0.30;;
29876;SDS011;16750;49.002;9.204;2022-09-13T15:44:25;2.25;;;0.40;;
29876;SDS011;16750;49.002;9.204;2022-09-13T15:46:52;1.00;;;0.40;;
29876;SDS011;16750;49.002;9.204;2022-09-13T15:49:21;3.92;;;0.40;;
29876;SDS011;16750;49.002;9.204;2022-09-13T15:51:53;1.40;;;0.35;;
29876;SDS011;16750;49.002;9.204;2022-09-13T15:54:23;2.20;;;0.57;;
29876;SDS011;16750;49.002;9.204;2022-09-13T15:56:55;1.80;;;0.40;;
29876;SDS011;16750;49.002;9.204;2022-09-13T15:59:20;2.17;;;0.73;;
29876;SDS011;16750;49.002;9.204;2022-09-13T16:01:47;4.72;;;1.90;;
29876;SDS011;16750;49.002;9.204;2022-09-13T16:04:14;4.85;;;1.73;;
29876;SDS011;16750;49.002;9.204;2022-09-13T16:06:39;6.40;;;3.00;;
29876;SDS011;16750;49.002;9.204;2022-09-13T16:09:18;5.60;;;2.30;;
29876;SDS011;16750;49.002;9.204;2022-09-13T16:11:46;6.35;;;2.40;;
29876;SDS011;16750;49.002;9.204;2022-09-13T16:14:12;3.65;;;1.10;;
29876;SDS011;16750;49.002;9.204;2022-09-13T16:16:38;2.72;;;0.70;;
29876;SDS011;16750;49.002;9.204;2022-09-13T16:19:12;2.72;;;0.60;;
29876;SDS011;16750;49.002;9.204;2022-09-13T16:21:39;2.65;;;0.68;;
29876;SDS011;16750;49.002;9.204;2022-09-13T16:24:05;1.95;;;0.63;;
29876;SDS011;16750;49.002;9.204;2022-09-13T16:26:30;6.47;;;0.60;;
29876;SDS011;16750;49.002;9.204;2022-09-13T16:28:57;1.90;;;0.50;;
29876;SDS011;16750;49.002;9.204;2022-09-13T16:31:23;2.53;;;0.70;;
29876;SDS011;16750;49.002;9.204;2022-09-13T16:33:49;3.83;;;0.65;;
29876;SDS011;16750;49.002;9.204;2022-09-13T16:36:14;3.25;;;0.90;;
29876;SDS011;16750;49.002;9.204;2022-09-13T16:38:39;5.43;;;0.80;;
29876;SDS011;16750;49.002;9.204;2022-09-13T16:41:05;4.40;;;1.00;;
29876;SDS011;16750;49.002;9.204;2022-09-13T16:43:31;2.88;;;0.80;;
29876;SDS011;16750;49.002;9.204;2022-09-13T16:45:57;2.88;;;1.05;;
29876;SDS011;16750;49.002;9.204;2022-09-13T16:48:23;5.35;;;1.00;;
29876;SDS011;16750;49.002;9.204;2022-09-13T16:50:49;3.88;;;0.90;;
29876;SDS011;16750;49.002;9.204;2022-09-13T16:53:14;5.38;;;1.20;;
29876;SDS011;16750;49.002;9.204;2022-09-13T16:55:40;4.63;;;1.10;;
29876;SDS011;16750;49.002;9.204;2022-09-13T16:58:07;2.10;;;1.00;;
29876;SDS011;16750;49.002;9.204;2022-09-13T17:00:32;3.33;;;1.00;;
29876;SDS011;16750;49.002;9.204;2022-09-13T17:02:58;3.35;;;1.23;;
29876;SDS011;16750;49.002;9.204;2022-09-13T17:05:23;3.25;;;1.20;;
29876;SDS011;16750;49.002;9.204;2022-09-13T17:07:50;3.88;;;1.30;;
29876;SDS011;16750;49.002;9.204;2022-09-13T17:10:16;3.97;;;1.20;;
29876;SDS011;16750;49.002;9.204;2022-09-13T17:12:42;6.68;;;1.52;;
29876;SDS011;16750;49.002;9.204;2022-09-13T17:15:07;6.57;;;1.48;;
29876;SDS011;16750;49.002;9.204;2022-09-13T17:17:33;6.03;;;1.45;;
29876;SDS011;16750;49.002;9.204;2022-09-13T17:20:04;2.22;;;1.10;;
29876;SDS011;16750;49.002;9.204;2022-09-13T17:22:33;4.00;;;1.50;;
29876;SDS011;16750;49.002;9.204;2022-09-13T17:24:59;4.28;;;1.50;;
29876;SDS011;16750;49.002;9.204;2022-09-13T17:27:25;4.15;;;1.35;;
29876;SDS011;16750;49.002;9.204;2022-09-13T17:29:51;2.95;;;1.30;;
29876;SDS011;16750;49.002;9.204;2022-09-13T17:32:17;4.65;;;1.45;;
29876;SDS011;16750;49.002;9.204;2022-09-13T17:34:44;5.50;;;1.40;;
29876;SDS011;16750;49.002;9.204;2022-09-13T17:37:09;5.82;;;1.20;;
29876;SDS011;16750;49.002;9.204;2022-09-13T17:39:35;5.05;;;1.00;;
29876;SDS011;16750;49.002;9.204;2022-09-13T17:42:00;7.90;;;1.20;;
29876;SDS011;16750;49.002;9.204;2022-09-13T17:44:26;2.13;;;1.00;;
29876;SDS011;16750;49.002;9.204;2022-09-13T17:46:51;6.18;;;1.35;;
29876;SDS011;16750;49.002;9.204;2022-09-13T17:49:17;5.40;;;1.55;;
29876;SDS011;16750;49.002;9.204;2022-09-13T17:51:42;2.28;;;1.25;;
29876;SDS011;16750;49.002;9.204;2022-09-13T17:54:09;3.88;;;1.40;;
29876;SDS011;16750;49.002;9.204;2022-09-13T17:56:36;5.53;;;1.70;;
29876;SDS011;16750;49.002;9.204;2022-09-13T17:59:10;8.20;;;1.80;;
29876;SDS011;16750;49.002;9.204;2022-09-13T18:01:38;4.30;;;1.27;;
29876;SDS011;16750;49.002;9.204;2022-09-13T18:04:06;5.43;;;1.40;;
29876;SDS011;16750;49.002;9.204;2022-09-13T18:06:32;5.20;;;1.30;;
29876;SDS011;16750;49.002;9.204;2022-09-13T18:08:59;3.85;;;1.30;;
29876;SDS011;16750;49.002;9.204;2022-09-13T18:11:25;2.00;;;0.93;;
29876;SDS011;16750;49.002;9.204;2022-09-13T18:13:50;5.70;;;1.63;;
29876;SDS011;16750;49.002;9.204;2022-09-13T18:16:20;4.78;;;1.38;;
29876;SDS011;16750;49.002;9.204;2022-09-13T18:18:50;4.45;;;1.10;;
29876;SDS011;16750;49.002;9.204;2022-09-13T18:21:20;4.90;;;1.08;;
29876;SDS011;16750;49.002;9.204;2022-09-13T18:23:49;3.72;;;1.08;;
29876;SDS011;16750;49.002;9.204;2022-09-13T18:26:17;3.33;;;0.90;;
29876;SDS011;16750;49.002;9.204;2022-09-13T18:28:44;5.97;;;1.10;;
29876;SDS011;16750;49.002;9.204;2022-09-13T18:31:14;2.58;;;0.95;;
29876;SDS011;16750;49.002;9.204;2022-09-13T18:33:41;4.65;;;1.45;;